Hazard, California
Current Conditions -  °F | °C
As of 2:47 PM on Wednesday 22 Oct 2014 (Local Time) from KCQT Reporting Station
Clear Clear  
Wind Chill: 79°   Ceiling: Unl
Heat Index: 80°   Visibility: 10mi
Dew Point: 58°   Wind: 3mph
Humidity: 48%   Direction: 250°WSW
Pressure: 29.89"   Gusts: NA
Location:  34.0453°N, 118.185°W
Report Text: KCQT 222147Z AUTO 25003KT 10SM CLR 26/14 A2989 RMK AO2 SLP118 T02610144
Loading
Personal Weather Stations






























Interactive Weather Map
Tropical Storm Tracking
New forecast layout! Learn more

10-Day Weather Forecast

Advertisements
Track Severe Weather on mobile